Time;durP1;ratioP1;P1;durP2;ratioP2;P2;SDS_P1;SDS_P2;PMS_P1;PMS_P2;Temp;Humidity;BMP_temperature;BMP_pressure;BME280_temperature;BME280_humidity;BME280_pressure;Samples;Min_cycle;Max_cycle;Signal;HPM_P1;HPM_P2
2022/07/26 00:00:35;;;;;;;7.85;1.67;;;18.40;99.90;;;;;;5042522;28;20047;-93
2022/07/26 00:03:01;;;;;;;11.10;1.67;;;18.40;99.90;;;;;;5041230;28;20052;-93
2022/07/26 00:05:27;;;;;;;12.40;2.35;;;18.50;99.90;;;;;;5025588;28;20045;-93
2022/07/26 00:08:09;;;;;;;12.95;1.55;;;18.50;99.90;;;;;;5025703;28;20032;-94
2022/07/26 00:10:39;;;;;;;6.90;2.03;;;18.50;99.90;;;;;;5028032;28;20095;-93
2022/07/26 00:13:05;;;;;;;12.15;1.85;;;18.60;99.90;;;;;;5041692;28;20033;-92
2022/07/26 00:15:31;;;;;;;10.68;2.83;;;18.70;99.90;;;;;;5041516;28;20036;-91
2022/07/26 00:17:57;;;;;;;6.95;1.48;;;18.60;99.90;;;;;;5041736;28;20143;-93
2022/07/26 00:20:23;;;;;;;11.32;1.70;;;19.70;99.90;;;;;;5025414;28;20120;-90
2022/07/26 00:22:49;;;;;;;11.50;1.80;;;18.60;99.90;;;;;;5040019;28;20045;-92
2022/07/26 00:25:14;;;;;;;12.00;1.83;;;18.60;99.90;;;;;;5024719;28;20063;-92
2022/07/26 00:27:40;;;;;;;6.78;1.70;;;18.60;99.90;;;;;;5025770;28;20045;-92
2022/07/26 00:30:07;;;;;;;9.80;2.38;;;18.60;99.90;;;;;;5041804;28;20052;-92
2022/07/26 00:32:33;;;;;;;9.30;2.05;;;18.60;99.90;;;;;;5025063;28;20041;-92
2022/07/26 00:34:59;;;;;;;8.52;1.83;;;18.60;99.90;;;;;;5040878;28;20556;-91
2022/07/26 00:37:25;;;;;;;7.32;1.75;;;18.60;99.90;;;;;;5023899;28;20463;-92
2022/07/26 00:39:51;;;;;;;7.63;1.55;;;19.10;99.90;;;;;;5040731;28;20128;-92
2022/07/26 00:42:20;;;;;;;7.70;1.88;;;18.60;99.90;;;;;;5060230;28;20044;-91
2022/07/26 00:44:46;;;;;;;6.70;1.33;;;18.50;99.90;;;;;;5043434;28;20040;-91
2022/07/26 00:47:13;;;;;;;6.80;1.38;;;18.50;99.90;;;;;;5025767;28;20040;-93
2022/07/26 00:49:39;;;;;;;8.85;1.60;;;18.50;99.90;;;;;;5029584;28;20052;-92
2022/07/26 00:52:06;;;;;;;5.22;1.70;;;18.50;99.90;;;;;;5047747;28;20048;-93
2022/07/26 00:54:32;;;;;;;7.82;1.60;;;18.40;99.90;;;;;;5031631;28;20048;-93
2022/07/26 00:56:58;;;;;;;4.80;1.52;;;18.40;99.90;;;;;;5048488;28;20132;-91
2022/07/26 00:59:24;;;;;;;7.57;1.25;;;18.40;99.90;;;;;;5032159;28;20629;-93
2022/07/26 01:01:49;;;;;;;12.25;1.90;;;18.40;99.90;;;;;;5049150;28;20044;-92
2022/07/26 01:04:15;;;;;;;7.28;1.50;;;18.40;99.90;;;;;;5047235;28;20118;-92
2022/07/26 01:06:41;;;;;;;6.35;1.33;;;18.90;99.90;;;;;;5047457;28;20079;-93
2022/07/26 01:09:08;;;;;;;5.35;1.58;;;18.40;99.90;;;;;;5046401;28;20051;-94
2022/07/26 01:11:34;;;;;;;9.35;1.77;;;18.40;99.90;;;;;;5051494;28;20132;-94
2022/07/26 01:13:59;;;;;;;12.05;1.88;;;18.40;99.90;;;;;;5038557;28;20045;-95
2022/07/26 01:16:25;;;;;;;7.15;1.73;;;18.80;99.90;;;;;;5052746;28;20041;-92
2022/07/26 01:18:51;;;;;;;9.00;1.60;;;18.60;99.90;;;;;;5044348;28;20033;-92
2022/07/26 01:21:17;;;;;;;15.82;1.60;;;18.40;99.90;;;;;;5042490;28;20071;-93
2022/07/26 01:23:43;;;;;;;5.43;1.45;;;18.40;99.90;;;;;;5026710;28;20070;-91
2022/07/26 01:26:09;;;;;;;6.50;1.80;;;18.40;99.90;;;;;;5042861;28;20086;-93
2022/07/26 01:28:37;;;;;;;8.50;2.25;;;18.40;99.90;;;;;;5041608;28;20042;-94
2022/07/26 01:31:04;;;;;;;5.95;1.25;;;18.40;99.90;;;;;;5041373;28;20045;-94
2022/07/26 01:33:29;;;;;;;11.27;1.98;;;18.40;99.90;;;;;;5041640;28;20051;-93
2022/07/26 01:35:58;;;;;;;9.98;1.98;;;18.40;99.90;;;;;;5041659;28;20139;-92
2022/07/26 01:38:24;;;;;;;4.78;1.92;;;18.40;99.90;;;;;;5025488;28;20044;-93
2022/07/26 01:40:50;;;;;;;8.15;0.93;;;18.40;99.90;;;;;;5041811;28;20049;-94
2022/07/26 01:43:16;;;;;;;6.68;1.55;;;18.40;99.90;;;;;;5046076;28;20041;-93
2022/07/26 01:45:42;;;;;;;5.53;1.20;;;18.40;99.90;;;;;;5048908;28;20522;-94
2022/07/26 01:48:08;;;;;;;5.65;1.15;;;18.40;99.90;;;;;;5047935;28;20068;-94
2022/07/26 01:50:35;;;;;;;8.60;1.88;;;18.40;99.90;;;;;;5046379;28;20051;-92
2022/07/26 01:53:02;;;;;;;5.47;1.65;;;18.40;99.90;;;;;;5026026;28;20778;-92
2022/07/26 01:55:27;;;;;;;4.97;1.40;;;18.30;99.90;;;;;;5042015;28;20048;-92
2022/07/26 01:57:53;;;;;;;3.15;1.20;;;18.30;99.90;;;;;;5043035;28;20070;-94
2022/07/26 02:00:20;;;;;;;5.65;1.50;;;18.30;99.90;;;;;;5040860;28;20084;-93
2022/07/26 02:02:46;;;;;;;5.03;1.52;;;18.30;99.90;;;;;;5023416;28;20057;-93
2022/07/26 02:05:12;;;;;;;5.50;1.33;;;18.30;99.90;;;;;;5040153;28;20049;-91
2022/07/26 02:07:41;;;;;;;4.57;1.20;;;18.20;99.90;;;;;;5039915;28;20435;-93
2022/07/26 02:10:09;;;;;;;8.05;1.25;;;18.20;99.90;;;;;;5057211;28;20045;-93
2022/07/26 02:12:35;;;;;;;5.28;1.60;;;18.20;99.90;;;;;;5040902;28;20036;-93
2022/07/26 02:15:02;;;;;;;7.55;1.65;;;18.20;99.90;;;;;;5057064;28;20052;-93
2022/07/26 02:17:28;;;;;;;4.05;1.48;;;18.20;99.90;;;;;;5038392;28;20087;-92
2022/07/26 02:19:53;;;;;;;9.65;2.03;;;18.20;99.90;;;;;;5022087;28;20040;-90
2022/07/26 02:22:19;;;;;;;11.75;2.50;;;19.00;99.90;;;;;;5019244;28;20075;-88
2022/07/26 02:24:46;;;;;;;8.43;2.67;;;18.10;99.90;;;;;;5035792;28;20049;-90
2022/07/26 02:27:12;;;;;;;6.63;1.77;;;18.00;99.90;;;;;;5052469;28;20045;-87
2022/07/26 02:29:37;;;;;;;12.05;1.85;;;17.80;99.90;;;;;;5051104;28;20052;-88
2022/07/26 02:32:05;;;;;;;5.05;1.60;;;17.70;99.90;;;;;;5035605;28;20045;-90
2022/07/26 02:34:31;;;;;;;7.93;1.73;;;17.60;99.90;;;;;;5051747;28;20503;-89
2022/07/26 02:36:56;;;;;;;7.28;2.03;;;17.50;99.90;;;;;;5051673;28;20135;-86
2022/07/26 02:39:26;;;;;;;10.90;2.10;;;17.50;99.90;;;;;;5069325;28;20479;-87
2022/07/26 02:42:00;;;;;;;10.80;1.77;;;17.40;99.90;;;;;;5034420;28;20044;-89
2022/07/26 02:44:26;;;;;;;6.22;1.23;;;17.40;99.90;;;;;;5035360;28;20044;-89
2022/07/26 02:46:52;;;;;;;9.98;1.48;;;17.40;99.90;;;;;;5036630;28;20075;-91
2022/07/26 02:49:19;;;;;;;8.98;1.88;;;17.30;99.90;;;;;;5053460;28;20037;-92
2022/07/26 02:51:45;;;;;;;5.95;1.40;;;17.30;99.90;;;;;;5053804;28;20055;-92
2022/07/26 02:54:12;;;;;;;7.03;1.55;;;17.30;99.90;;;;;;5054009;28;20047;-92
2022/07/26 02:56:38;;;;;;;9.40;1.65;;;17.20;99.90;;;;;;5054118;28;20559;-91
2022/07/26 02:59:04;;;;;;;8.65;1.38;;;17.20;99.90;;;;;;5054572;28;20079;-92
2022/07/26 03:01:30;;;;;;;10.23;1.42;;;17.20;99.90;;;;;;5054265;28;20041;-90
2022/07/26 03:03:55;;;;;;;8.43;1.38;;;17.10;99.90;;;;;;5052713;28;20194;-91
2022/07/26 03:06:21;;;;;;;8.05;1.33;;;17.10;99.90;;;;;;5038178;28;20099;-91
2022/07/26 03:08:47;;;;;;;7.50;1.50;;;17.10;99.90;;;;;;5055267;28;20036;-90
2022/07/26 03:11:14;;;;;;;10.30;1.70;;;17.10;99.90;;;;;;5040765;28;20053;-92
2022/07/26 03:13:39;;;;;;;6.07;1.10;;;17.00;99.90;;;;;;5043348;28;20036;-92
2022/07/26 03:16:08;;;;;;;9.73;1.38;;;17.00;99.90;;;;;;5038787;28;20043;-93
2022/07/26 03:18:34;;;;;;;6.68;0.80;;;17.00;99.90;;;;;;5037786;28;20519;-94
2022/07/26 03:21:00;;;;;;;8.70;1.20;;;17.00;99.90;;;;;;5037447;28;20090;-92
2022/07/26 03:23:26;;;;;;;9.85;1.35;;;16.90;99.90;;;;;;5055684;28;20094;-93
2022/07/26 03:25:52;;;;;;;3.70;0.80;;;16.90;99.90;;;;;;5037615;28;20041;-92
2022/07/26 03:28:18;;;;;;;8.02;1.10;;;16.90;99.90;;;;;;5055611;28;20119;-89
2022/07/26 03:30:45;;;;;;;13.82;1.45;;;16.90;99.90;;;;;;5040346;28;20476;-93
2022/07/26 03:33:11;;;;;;;10.52;1.45;;;16.90;99.90;;;;;;5024028;28;20059;-92
2022/07/26 03:35:37;;;;;;;10.50;1.25;;;16.80;99.90;;;;;;5024969;28;20040;-91
2022/07/26 03:38:03;;;;;;;10.77;1.30;;;16.90;99.90;;;;;;5039473;28;20111;-91
2022/07/26 03:40:28;;;;;;;3.53;0.55;;;16.80;99.90;;;;;;5038865;28;20104;-94
2022/07/26 03:42:54;;;;;;;2.55;0.50;;;16.80;99.90;;;;;;5037723;28;20052;-93
2022/07/26 03:45:20;;;;;;;7.22;0.68;;;17.50;99.90;;;;;;5021521;28;20032;-93
2022/07/26 03:47:45;;;;;;;11.88;0.90;;;16.80;99.90;;;;;;5037504;28;20052;-93
2022/07/26 03:50:12;;;;;;;12.52;1.10;;;16.80;99.90;;;;;;5040413;28;20165;-91
2022/07/26 03:52:38;;;;;;;3.80;0.60;;;16.90;99.90;;;;;;5040201;28;20040;-91
2022/07/26 03:56:27;;;;;;;5.55;0.70;;;16.80;99.90;;;;;;5041793;28;20115;-92
2022/07/26 03:57:51;;;;;;;4.10;0.57;;;16.70;99.90;;;;;;5060277;28;20040;-91
2022/07/26 04:00:18;;;;;;;3.72;0.50;;;16.70;99.90;;;;;;5058852;28;20051;-91
2022/07/26 04:02:43;;;;;;;9.65;0.75;;;16.70;99.90;;;;;;5058983;28;20057;-93
2022/07/26 04:05:10;;;;;;;3.85;0.77;;;16.70;99.90;;;;;;5042041;28;20112;-94
2022/07/26 04:07:43;;;;;;;6.82;0.60;;;16.70;99.90;;;;;;5059585;28;20041;-92
2022/07/26 04:10:11;;;;;;;4.10;0.80;;;16.70;99.90;;;;;;5042569;28;20510;-91
2022/07/26 04:12:39;;;;;;;1.35;0.20;;;16.70;99.90;;;;;;5056600;28;20068;-93
2022/07/26 04:15:05;;;;;;;7.70;0.70;;;16.70;99.90;;;;;;5055463;28;20491;-95
2022/07/26 04:17:38;;;;;;;6.18;0.73;;;16.70;99.90;;;;;;5066840;28;20052;-95
2022/07/26 04:20:05;;;;;;;3.00;0.57;;;16.70;99.90;;;;;;5077051;28;20158;-95
2022/07/26 04:22:31;;;;;;;1.95;0.30;;;16.70;99.90;;;;;;5061180;28;20032;-94
2022/07/26 04:24:57;;;;;;;6.05;0.63;;;16.70;99.90;;;;;;5062410;28;20068;-94
2022/07/26 04:27:23;;;;;;;6.28;0.68;;;16.70;99.90;;;;;;5091042;28;20131;-96
2022/07/26 04:29:50;;;;;;;10.52;0.95;;;16.80;99.90;;;;;;5073352;28;20071;-95
2022/07/26 04:32:16;;;;;;;7.85;0.68;;;16.70;99.90;;;;;;5068764;28;20049;-95
2022/07/26 04:34:42;;;;;;;4.50;0.70;;;16.60;99.90;;;;;;5050912;28;20046;-94
2022/07/26 04:37:17;;;;;;;4.45;0.55;;;16.70;99.90;;;;;;5082104;28;20075;-96
2022/07/26 04:39:43;;;;;;;5.35;0.55;;;16.60;99.90;;;;;;5048282;28;20036;-95
2022/07/26 04:42:09;;;;;;;3.75;0.85;;;16.60;99.90;;;;;;5064288;28;20128;-96
2022/07/26 04:44:34;;;;;;;4.60;0.52;;;16.60;99.90;;;;;;5064176;28;20072;-95
2022/07/26 04:47:01;;;;;;;4.45;0.77;;;16.00;99.90;;;;;;5070102;28;20108;-96
2022/07/26 04:49:26;;;;;;;4.53;0.98;;;16.60;99.90;;;;;;5064674;28;20446;-93
2022/07/26 04:51:52;;;;;;;5.85;0.75;;;16.60;99.90;;;;;;5046387;28;20052;-90
2022/07/26 04:54:19;;;;;;;4.00;0.47;;;16.60;99.90;;;;;;5044050;28;20072;-94
2022/07/26 04:56:49;;;;;;;6.65;0.63;;;16.60;99.90;;;;;;5061271;28;20044;-94
2022/07/26 04:59:18;;;;;;;5.43;0.80;;;16.60;99.90;;;;;;5059786;28;20048;-94
2022/07/26 05:01:44;;;;;;;6.18;1.63;;;15.80;99.90;;;;;;5060351;28;20041;-92
2022/07/26 05:04:10;;;;;;;1.60;0.35;;;16.70;99.90;;;;;;5059314;28;20102;-92
2022/07/26 05:06:36;;;;;;;4.43;0.55;;;16.70;99.90;;;;;;5033515;28;20053;-92
2022/07/26 05:09:02;;;;;;;5.57;0.65;;;16.80;99.90;;;;;;5061885;28;20039;-92
2022/07/26 05:11:28;;;;;;;5.72;0.60;;;16.80;99.90;;;;;;5055562;28;20045;-91
2022/07/26 05:13:54;;;;;;;2.47;0.35;;;16.80;99.90;;;;;;5037308;28;20040;-90
2022/07/26 05:16:19;;;;;;;1.60;0.43;;;17.30;99.90;;;;;;5021298;28;20135;-88
2022/07/26 05:18:45;;;;;;;2.13;0.30;;;16.80;99.90;;;;;;5054033;28;20048;-89
2022/07/26 05:21:11;;;;;;;2.55;0.65;;;16.80;99.90;;;;;;5054609;28;20045;-90
2022/07/26 05:23:37;;;;;;;9.88;0.65;;;16.70;99.90;;;;;;5054405;28;20132;-88
2022/07/26 05:26:02;;;;;;;3.85;0.50;;;16.70;99.90;;;;;;5037665;28;20044;-90
2022/07/26 05:28:28;;;;;;;4.75;0.40;;;16.60;99.90;;;;;;5035714;28;20076;-90
2022/07/26 05:30:54;;;;;;;2.88;0.30;;;16.60;99.90;;;;;;5070011;28;20183;-89
2022/07/26 05:33:19;;;;;;;6.57;0.47;;;16.60;99.90;;;;;;5048666;28;20077;-89
2022/07/26 05:35:45;;;;;;;5.82;0.52;;;16.50;99.90;;;;;;5052111;28;20044;-90
2022/07/26 05:38:11;;;;;;;3.05;0.28;;;16.40;99.90;;;;;;5055911;28;20559;-87
2022/07/26 05:40:36;;;;;;;9.02;0.50;;;16.30;99.90;;;;;;5036067;28;20129;-88
2022/07/26 05:43:03;;;;;;;2.70;0.50;;;16.30;99.90;;;;;;5051138;28;20048;-88
2022/07/26 05:45:29;;;;;;;2.65;0.30;;;16.30;99.90;;;;;;5019075;28;20126;-89
2022/07/26 05:47:55;;;;;;;1.75;0.50;;;16.30;99.90;;;;;;5051093;28;20060;-87
2022/07/26 05:50:21;;;;;;;4.32;0.70;;;16.30;99.90;;;;;;5051533;28;20091;-88
2022/07/26 05:52:46;;;;;;;2.78;0.55;;;16.30;99.90;;;;;;5050960;28;20462;-87
2022/07/26 05:55:12;;;;;;;6.22;1.52;;;16.30;99.90;;;;;;5034317;28;20155;-87
2022/07/26 05:57:40;;;;;;;3.80;0.82;;;16.40;99.90;;;;;;5051011;28;20045;-86
2022/07/26 06:00:10;;;;;;;7.03;1.33;;;16.80;99.90;;;;;;5033866;28;20568;-87
2022/07/26 06:02:35;;;;;;;11.50;0.88;;;16.50;99.90;;;;;;5051033;28;20103;-87
2022/07/26 06:05:01;;;;;;;7.47;0.95;;;16.60;99.90;;;;;;5034390;28;20438;-88
2022/07/26 06:07:27;;;;;;;7.53;0.55;;;16.60;99.90;;;;;;5034641;28;20415;-88
2022/07/26 06:09:52;;;;;;;6.15;0.65;;;16.70;99.90;;;;;;5050695;28;20086;-88
2022/07/26 06:12:18;;;;;;;4.97;0.50;;;16.70;99.90;;;;;;5034394;28;20045;-88
2022/07/26 06:14:44;;;;;;;2.80;0.43;;;16.80;99.90;;;;;;5067917;28;20033;-87
2022/07/26 06:17:10;;;;;;;10.63;0.70;;;16.80;99.90;;;;;;5017847;28;20549;-88
2022/07/26 06:19:36;;;;;;;6.25;1.23;;;16.80;99.90;;;;;;5034812;28;20091;-88
2022/07/26 06:22:02;;;;;;;4.82;0.77;;;16.90;99.90;;;;;;5050688;28;20071;-88
2022/07/26 06:24:28;;;;;;;3.30;0.70;;;17.50;99.90;;;;;;5034801;28;20480;-87
2022/07/26 06:26:55;;;;;;;4.40;0.85;;;17.00;99.90;;;;;;5034713;28;20105;-88
2022/07/26 06:29:22;;;;;;;5.60;0.88;;;17.00;99.90;;;;;;5050760;28;20052;-86
2022/07/26 06:31:48;;;;;;;4.10;0.63;;;17.00;99.90;;;;;;5033606;28;20090;-87
2022/07/26 06:34:14;;;;;;;5.85;0.63;;;17.00;99.90;;;;;;5033549;28;20044;-87
2022/07/26 06:36:40;;;;;;;7.57;1.00;;;16.90;99.90;;;;;;5050357;28;20036;-86
2022/07/26 06:39:06;;;;;;;4.95;0.45;;;16.90;99.90;;;;;;5049902;28;20041;-86
2022/07/26 06:41:31;;;;;;;2.42;0.35;;;16.90;99.90;;;;;;5033839;28;20044;-86
2022/07/26 06:43:57;;;;;;;4.82;0.43;;;16.90;99.90;;;;;;5050595;28;20067;-90
2022/07/26 06:46:23;;;;;;;3.70;0.50;;;16.90;99.90;;;;;;5052687;28;20512;-89
2022/07/26 06:48:49;;;;;;;3.85;0.50;;;17.20;99.90;;;;;;5053364;28;20040;-90
2022/07/26 06:51:15;;;;;;;5.18;0.75;;;17.00;99.90;;;;;;5057416;28;20052;-90
2022/07/26 06:53:41;;;;;;;4.43;0.50;;;17.10;99.90;;;;;;5059194;28;20122;-91
2022/07/26 06:56:07;;;;;;;1.73;0.30;;;17.30;99.90;;;;;;5038037;28;20463;-91
2022/07/26 06:58:33;;;;;;;2.50;0.63;;;17.50;99.90;;;;;;5055637;28;20044;-90
2022/07/26 07:00:58;;;;;;;6.07;0.40;;;17.60;99.90;;;;;;5053573;28;20060;-91
2022/07/26 07:03:24;;;;;;;4.78;0.60;;;17.60;99.90;;;;;;5056002;28;20061;-92
2022/07/26 07:05:50;;;;;;;5.93;1.20;;;17.60;99.90;;;;;;5039375;28;20044;-90
2022/07/26 07:08:17;;;;;;;5.43;0.60;;;17.50;99.90;;;;;;5023308;28;20045;-90
2022/07/26 07:10:43;;;;;;;3.42;0.38;;;17.50;99.90;;;;;;5044680;28;20052;-95
2022/07/26 07:13:09;;;;;;;1.42;0.30;;;17.40;99.90;;;;;;5046175;28;20178;-96
2022/07/26 07:15:34;;;;;;;7.68;0.70;;;17.30;99.90;;;;;;5059396;28;20103;-93
2022/07/26 07:18:00;;;;;;;2.05;0.35;;;17.30;99.90;;;;;;5041870;28;20044;-96
2022/07/26 07:20:29;;;;;;;5.13;1.02;;;17.40;99.90;;;;;;5058409;28;20056;-95
2022/07/26 07:22:55;;;;;;;2.17;0.40;;;17.50;99.90;;;;;;5041148;28;20056;-95
2022/07/26 07:25:20;;;;;;;3.05;0.57;;;17.60;99.90;;;;;;5060484;28;20044;-96
2022/07/26 07:27:46;;;;;;;3.65;0.40;;;17.70;99.90;;;;;;5027022;28;20040;-95
2022/07/26 07:30:15;;;;;;;12.20;0.75;;;17.80;99.90;;;;;;5044823;28;20044;-96
2022/07/26 07:32:43;;;;;;;4.85;0.75;;;17.90;99.90;;;;;;5045556;28;20041;-96
2022/07/26 07:35:09;;;;;;;4.65;0.90;;;17.90;99.90;;;;;;5059216;28;20094;-96
2022/07/26 07:37:35;;;;;;;5.15;0.65;;;18.00;99.90;;;;;;5043648;28;20044;-94
2022/07/26 07:40:08;;;;;;;6.18;0.95;;;17.90;99.90;;;;;;5046150;28;20049;-94
2022/07/26 07:42:37;;;;;;;5.18;0.70;;;17.90;99.90;;;;;;5029558;28;20103;-96
2022/07/26 07:45:04;;;;;;;9.80;1.00;;;17.80;99.90;;;;;;5051878;28;20040;-96
2022/07/26 07:47:34;;;;;;;4.35;0.90;;;17.80;99.90;;;;;;5067780;28;20051;-96
2022/07/26 07:49:59;;;;;;;1.55;0.43;;;17.80;99.90;;;;;;5049092;28;20475;-96
2022/07/26 07:52:26;;;;;;;8.90;0.70;;;17.80;99.90;;;;;;5072642;28;20055;-96
2022/07/26 07:55:00;;;;;;;4.63;0.63;;;17.70;99.90;;;;;;5083161;28;20055;-96
2022/07/26 07:57:34;;;;;;;9.35;1.10;;;17.40;99.90;;;;;;5064894;28;20039;-96
2022/07/26 08:00:03;;;;;;;5.05;0.47;;;17.80;99.90;;;;;;5083971;28;20511;-96
2022/07/26 08:02:34;;;;;;;5.07;0.52;;;17.90;99.90;;;;;;5067681;28;20048;-96
2022/07/26 08:05:10;;;;;;;3.97;0.80;;;17.60;99.90;;;;;;5081164;28;20063;-96
2022/07/26 08:07:57;;;;;;;6.47;0.93;;;18.00;99.90;;;;;;5020965;28;20088;-96
2022/07/26 08:10:41;;;;;;;3.92;0.45;;;17.40;99.90;;;;;;5038515;28;20045;-96
2022/07/26 08:13:32;;;;;;;5.72;0.52;;;18.00;99.90;;;;;;5041498;28;20065;-95
2022/07/26 08:16:08;;;;;;;4.28;0.43;;;17.20;99.90;;;;;;5051993;28;20091;-96
2022/07/26 08:18:40;;;;;;;3.85;0.60;;;18.10;99.90;;;;;;5034554;28;20057;-94
2022/07/26 08:21:06;;;;;;;6.75;0.70;;;17.50;99.90;;;;;;5001489;28;20057;-96
2022/07/26 08:23:34;;;;;;;7.63;1.00;;;18.50;99.90;;;;;;5033310;28;20044;-96
2022/07/26 08:26:11;;;;;;;5.40;0.88;;;18.80;99.90;;;;;;5052814;28;20041;-95
2022/07/26 08:28:39;;;;;;;5.05;1.17;;;19.10;99.90;;;;;;5009391;28;20057;-92
2022/07/26 08:31:05;;;;;;;4.10;0.95;;;18.90;99.90;;;;;;5021853;28;20041;-90
2022/07/26 08:33:31;;;;;;;4.88;0.68;;;19.00;99.90;;;;;;4988160;28;20049;-91
2022/07/26 08:35:56;;;;;;;10.35;1.77;;;19.00;99.90;;;;;;5004910;28;20132;-92
2022/07/26 08:38:22;;;;;;;4.95;0.85;;;18.90;99.90;;;;;;5019367;28;20113;-92
2022/07/26 08:40:48;;;;;;;4.65;0.50;;;18.80;99.90;;;;;;5044980;28;20040;-90
2022/07/26 08:43:14;;;;;;;6.57;0.82;;;18.60;99.90;;;;;;5028713;28;20057;-88
2022/07/26 08:45:40;;;;;;;4.78;0.80;;;18.60;99.90;;;;;;5029228;28;20053;-91
2022/07/26 08:48:12;;;;;;;4.57;1.00;;;18.30;99.90;;;;;;5045143;28;20104;-92
2022/07/26 08:50:39;;;;;;;5.60;0.90;;;18.30;99.90;;;;;;5046318;28;20041;-92
2022/07/26 08:53:08;;;;;;;6.50;2.25;;;18.40;99.90;;;;;;5026486;28;20297;-91
2022/07/26 08:55:34;;;;;;;9.60;0.80;;;18.40;99.90;;;;;;5042633;28;20051;-92
2022/07/26 08:58:04;;;;;;;5.32;1.27;;;18.50;99.90;;;;;;5027272;28;20044;-90
2022/07/26 09:00:40;;;;;;;6.53;0.93;;;18.40;99.90;;;;;;5060948;28;20078;-96
2022/07/26 09:03:25;;;;;;;5.75;1.13;;;18.30;99.90;;;;;;5065776;28;20029;-94
2022/07/26 09:09:57;;;;;;;;;;;18.00;99.90;;;;;;5039008;28;19944;-96
2022/07/26 09:16:54;;;;;;;6.03;1.27;;;18.00;99.90;;;;;;4984931;28;20073;-96
2022/07/26 09:27:01;;;;;;;7.07;1.08;;;18.30;99.90;;;;;;5034341;28;20022;-96
2022/07/26 09:33:25;;;;;;;9.18;1.65;;;18.30;99.90;;;;;;4996221;28;20558;-95
2022/07/26 09:39:26;;;;;;;11.20;2.08;;;18.30;99.90;;;;;;4973572;28;20050;-88
2022/07/26 09:41:53;;;;;;;16.48;1.60;;;18.40;99.90;;;;;;4939792;28;20058;-88
2022/07/26 09:44:24;;;;;;;9.43;1.52;;;18.60;99.90;;;;;;4940180;28;20498;-88
2022/07/26 09:46:57;;;;;;;11.43;1.15;;;18.70;99.90;;;;;;4956183;28;20224;-88
2022/07/26 09:49:24;;;;;;;9.40;1.30;;;18.70;99.90;;;;;;4938267;28;20561;-89
2022/07/26 09:51:52;;;;;;;13.40;1.20;;;18.80;99.90;;;;;;4939620;28;20150;-88
2022/07/26 09:54:34;;;;;;;12.05;1.30;;;18.20;99.90;;;;;;4989228;28;20050;-89
2022/07/26 09:57:00;;;;;;;5.75;1.10;;;18.90;99.90;;;;;;4978192;28;20046;-88
2022/07/26 09:59:27;;;;;;;8.93;1.60;;;18.90;99.90;;;;;;4979502;28;20129;-88
2022/07/26 10:01:56;;;;;;;15.07;1.27;;;18.80;99.90;;;;;;5009903;28;20100;-88
2022/07/26 10:04:22;;;;;;;5.75;0.98;;;18.90;99.90;;;;;;4958884;28;20169;-89
2022/07/26 10:06:49;;;;;;;8.55;1.10;;;19.00;99.90;;;;;;4978966;28;20488;-86
2022/07/26 10:09:17;;;;;;;9.30;1.40;;;19.00;99.90;;;;;;4978347;28;20052;-88
2022/07/26 10:11:53;;;;;;;8.75;1.60;;;19.20;99.90;;;;;;5026460;28;20638;-86
2022/07/26 10:14:39;;;;;;;7.35;1.42;;;19.30;99.90;;;;;;5008839;28;20538;-87
2022/07/26 10:17:29;;;;;;;4.18;0.80;;;19.40;99.90;;;;;;5008816;28;20076;-87
2022/07/26 10:20:04;;;;;;;5.93;1.13;;;19.50;99.90;;;;;;4978133;28;20058;-87
2022/07/26 10:22:41;;;;;;;6.78;0.98;;;19.50;99.90;;;;;;5007519;28;20417;-87
2022/07/26 10:25:18;;;;;;;4.43;1.23;;;19.60;99.90;;;;;;4974423;28;20046;-88
2022/07/26 10:27:45;;;;;;;9.70;1.08;;;19.60;99.90;;;;;;4974616;28;20168;-89
2022/07/26 10:30:17;;;;;;;5.88;1.02;;;19.70;99.90;;;;;;5020453;28;20531;-87
2022/07/26 10:33:00;;;;;;;4.13;1.00;;;19.80;99.90;;;;;;5015334;28;20058;-88
2022/07/26 10:35:35;;;;;;;8.02;1.05;;;20.00;99.90;;;;;;5030483;28;20123;-88
2022/07/26 10:38:06;;;;;;;9.73;1.88;;;20.10;99.90;;;;;;5014008;28;20041;-89
2022/07/26 10:40:33;;;;;;;4.43;0.80;;;20.00;99.90;;;;;;5030818;28;20076;-88
2022/07/26 10:43:09;;;;;;;10.98;1.17;;;20.10;99.90;;;;;;5029674;28;20049;-88
2022/07/26 10:45:35;;;;;;;11.18;1.98;;;20.10;99.90;;;;;;5014035;28;20562;-88
2022/07/26 10:48:19;;;;;;;5.90;1.20;;;20.20;99.90;;;;;;5013448;28;20041;-88
2022/07/26 10:50:47;;;;;;;4.60;0.60;;;20.40;99.90;;;;;;5030723;28;20052;-88
2022/07/26 10:53:22;;;;;;;6.60;1.77;;;20.60;99.90;;;;;;5030375;28;20119;-88
2022/07/26 10:55:55;;;;;;;6.63;0.75;;;20.60;99.90;;;;;;5029490;28;20048;-88
2022/07/26 10:58:23;;;;;;;2.40;0.63;;;20.60;99.90;;;;;;5032986;28;20045;-89
2022/07/26 11:00:59;;;;;;;6.72;0.65;;;20.60;99.90;;;;;;5033372;28;20467;-87
2022/07/26 11:03:35;;;;;;;6.72;1.20;;;20.60;99.90;;;;;;5022703;28;20142;-89
2022/07/26 11:06:15;;;;;;;2.95;0.60;;;20.70;99.90;;;;;;5036875;28;20512;-88
2022/07/26 11:08:42;;;;;;;3.53;0.60;;;20.80;99.90;;;;;;5051638;28;20052;-88
2022/07/26 11:11:08;;;;;;;4.25;0.60;;;20.80;99.90;;;;;;5051678;28;20049;-88
2022/07/26 11:13:35;;;;;;;4.82;0.88;;;20.80;99.90;;;;;;5034553;28;20045;-87
2022/07/26 11:16:04;;;;;;;2.58;0.50;;;20.50;99.90;;;;;;5036533;28;20046;-87
2022/07/26 11:18:36;;;;;;;3.22;0.57;;;21.10;99.90;;;;;;5052957;28;20381;-86
2022/07/26 11:21:15;;;;;;;5.28;0.80;;;21.20;99.90;;;;;;5070057;28;20449;-87
2022/07/26 11:23:46;;;;;;;5.53;0.80;;;21.30;99.90;;;;;;5053173;28;20059;-87
2022/07/26 11:26:14;;;;;;;3.13;0.60;;;21.30;99.90;;;;;;5051095;28;20511;-88
2022/07/26 11:28:49;;;;;;;3.97;0.82;;;21.30;99.90;;;;;;5035542;28;20385;-87
2022/07/26 11:31:16;;;;;;;3.90;0.52;;;21.60;99.90;;;;;;5065695;28;20109;-88
2022/07/26 11:33:44;;;;;;;4.47;0.50;;;21.70;99.90;;;;;;5032923;28;20045;-87
2022/07/26 11:36:10;;;;;;;2.35;0.52;;;21.70;99.90;;;;;;5066821;28;20049;-88
2022/07/26 11:39:07;;;;;;;5.72;0.55;;;21.60;99.90;;;;;;5032564;28;20056;-89
2022/07/26 11:41:34;;;;;;;3.03;0.30;;;21.60;96.90;;;;;;4980524;28;20065;-89
2022/07/26 11:44:00;;;;;;;4.13;0.43;;;21.60;99.90;;;;;;5032226;28;20129;-87
2022/07/26 11:46:39;;;;;;;2.03;0.40;;;21.70;99.90;;;;;;5050077;28;20419;-87
2022/07/26 11:49:15;;;;;;;1.88;0.30;;;21.80;97.90;;;;;;5049730;28;20060;-88
2022/07/26 11:51:49;;;;;;;3.65;0.57;;;21.80;98.00;;;;;;5032676;28;20131;-85
2022/07/26 11:54:14;;;;;;;3.97;0.60;;;21.80;98.50;;;;;;5053683;28;20408;-87
2022/07/26 11:57:02;;;;;;;5.03;0.55;;;21.70;99.20;;;;;;5053504;28;20049;-86
2022/07/26 11:59:33;;;;;;;2.45;0.35;;;21.70;98.80;;;;;;5039218;28;20083;-87
2022/07/26 12:02:02;;;;;;;3.78;0.65;;;21.60;99.20;;;;;;5049768;28;20053;-87
2022/07/26 12:04:31;;;;;;;6.45;1.15;;;21.60;99.30;;;;;;5049771;28;20045;-87
2022/07/26 12:07:03;;;;;;;3.72;0.50;;;21.70;99.20;;;;;;5012788;28;20049;-87
2022/07/26 12:09:42;;;;;;;1.77;0.50;;;21.70;98.60;;;;;;4987133;28;20176;-87
2022/07/26 12:12:18;;;;;;;6.28;0.70;;;21.80;97.40;;;;;;4972369;28;20053;-87
2022/07/26 12:15:03;;;;;;;3.58;0.75;;;21.80;99.00;;;;;;4976106;28;20378;-87
2022/07/26 12:17:29;;;;;;;2.90;0.52;;;21.80;99.00;;;;;;5004566;28;20441;-87
2022/07/26 12:19:57;;;;;;;3.00;0.60;;;21.70;99.50;;;;;;4972256;28;20062;-89
2022/07/26 12:22:24;;;;;;;4.65;0.63;;;21.50;99.40;;;;;;4971252;28;20133;-88
2022/07/26 12:25:01;;;;;;;5.47;0.60;;;21.50;99.80;;;;;;4972007;28;20046;-87
2022/07/26 12:27:31;;;;;;;3.58;0.60;;;21.40;99.40;;;;;;4973131;28;20560;-87
2022/07/26 12:30:00;;;;;;;7.40;0.70;;;21.40;99.60;;;;;;4973789;28;20058;-87
2022/07/26 12:32:38;;;;;;;5.47;0.60;;;21.30;99.40;;;;;;5010470;28;20136;-87
2022/07/26 12:35:08;;;;;;;11.43;1.13;;;21.20;99.20;;;;;;5006472;28;20054;-87
2022/07/26 12:37:52;;;;;;;2.08;0.43;;;21.20;99.50;;;;;;4994496;28;20076;-87
2022/07/26 12:40:25;;;;;;;8.70;0.75;;;21.10;99.20;;;;;;4996788;28;20049;-88
2022/07/26 12:42:51;;;;;;;6.00;1.08;;;21.10;99.90;;;;;;5035723;28;20618;-87
2022/07/26 12:45:22;;;;;;;4.65;1.20;;;21.10;99.90;;;;;;5035369;28;20076;-88
2022/07/26 12:47:51;;;;;;;4.13;0.90;;;21.10;99.90;;;;;;5034772;28;20043;-88
2022/07/26 12:50:19;;;;;;;3.78;0.60;;;21.10;99.90;;;;;;5034335;28;20048;-88
2022/07/26 12:52:45;;;;;;;6.32;0.65;;;21.20;99.90;;;;;;5033391;28;20155;-88
2022/07/26 12:55:17;;;;;;;9.82;0.82;;;21.20;99.90;;;;;;5017253;28;20052;-88
2022/07/26 12:57:45;;;;;;;4.10;0.60;;;21.30;99.90;;;;;;5017380;28;20120;-88
2022/07/26 13:00:11;;;;;;;9.27;0.80;;;21.40;99.90;;;;;;4984056;28;20299;-88
2022/07/26 13:02:38;;;;;;;7.32;0.90;;;21.40;99.80;;;;;;5033387;28;20508;-87
2022/07/26 13:05:05;;;;;;;7.07;0.70;;;21.50;99.90;;;;;;4999555;28;20191;-88
2022/07/26 13:07:31;;;;;;;4.38;1.02;;;21.50;99.60;;;;;;5017571;28;20131;-88
2022/07/26 13:09:57;;;;;;;5.43;0.70;;;21.60;99.50;;;;;;4984250;28;20154;-88
2022/07/26 13:12:23;;;;;;;5.88;0.93;;;21.80;98.90;;;;;;5032958;28;20485;-88
2022/07/26 13:14:49;;;;;;;5.18;0.70;;;21.80;98.50;;;;;;5017107;28;20048;-88